createdAt,value
2022-11-07T00:04:06.017Z,100489.16
2022-11-07T00:09:09.937Z,100490.47
2022-11-07T00:14:15.281Z,100484.78
2022-11-07T00:19:24.530Z,100481.72
2022-11-07T00:24:28.520Z,100485.84
2022-11-07T00:29:31.153Z,100488.16
2022-11-07T00:34:35.266Z,100487.16
2022-11-07T00:39:36.914Z,100478.75
2022-11-07T00:44:40.961Z,100498.72
2022-11-07T00:49:44.886Z,100493.84
2022-11-07T00:54:51.433Z,100511.19
2022-11-07T00:59:53.057Z,100505.44
2022-11-07T01:05:13.185Z,100522.94
2022-11-07T01:10:15.889Z,100515.41
2022-11-07T01:15:22.158Z,100508.50
2022-11-07T01:20:26.578Z,100489.56
2022-11-07T01:25:28.248Z,100498.25
2022-11-07T01:30:33.810Z,100522.38
2022-11-07T01:35:38.713Z,100530.47
2022-11-07T01:41:01.008Z,100510.19
2022-11-07T01:46:04.793Z,100512.09
2022-11-07T01:51:09.841Z,100514.47
2022-11-07T01:56:14.891Z,100514.94
2022-11-07T02:01:18.625Z,100530.41
2022-11-07T02:06:45.640Z,100513.63
2022-11-07T02:11:51.812Z,100511.31
2022-11-07T02:16:58.170Z,100515.22
2022-11-07T02:22:04.488Z,100533.19
2022-11-07T02:27:09.326Z,100521.72
2022-11-07T02:32:15.611Z,100538.41
2022-11-07T02:37:24.305Z,100527.31
2022-11-07T02:42:43.349Z,100516.16
2022-11-07T02:47:45.240Z,100525.47
2022-11-07T02:52:49.607Z,100531.44
2022-11-07T02:57:53.649Z,100527.78
2022-11-07T03:02:55.528Z,100541.97
2022-11-07T03:08:02.289Z,100534.41
2022-11-07T03:13:06.654Z,100523.94
2022-11-07T03:18:10.590Z,100538.59
2022-11-07T03:23:14.772Z,100539.03
2022-11-07T03:28:16.854Z,100547.69
2022-11-07T03:33:23.098Z,100558.69
2022-11-07T03:38:31.978Z,100554.16
2022-11-07T03:43:33.597Z,100548.78
2022-11-07T03:48:40.951Z,100542.78
2022-11-07T03:53:44.952Z,100553.91
2022-11-07T03:58:49.683Z,100553.63
2022-11-07T04:03:56.261Z,100553.78
2022-11-07T04:09:00.589Z,100568.97
2022-11-07T04:14:26.347Z,100555.19
2022-11-07T04:19:27.987Z,100564.97
2022-11-07T04:24:29.653Z,100564.88
2022-11-07T04:29:31.361Z,100584.66
2022-11-07T04:34:34.153Z,100581.72
2022-11-07T04:39:42.982Z,100604.59
2022-11-07T04:44:44.647Z,100597.19
2022-11-07T04:49:48.648Z,100606.50
2022-11-07T04:54:52.838Z,100606.31
2022-11-07T04:59:54.599Z,100602.72
2022-11-07T05:04:58.506Z,100614.66
2022-11-07T05:10:00.169Z,100613.69
2022-11-07T05:15:01.865Z,100619.34
2022-11-07T05:20:06.349Z,100619.66
2022-11-07T05:25:10.350Z,100623.06
2022-11-07T05:30:21.073Z,100624.13
2022-11-07T05:35:22.717Z,100622.75
2022-11-07T05:40:27.017Z,100621.38
2022-11-07T05:45:37.546Z,100623.94
2022-11-07T05:50:41.350Z,100627.06
2022-11-07T05:55:43.158Z,100641.63
2022-11-07T06:00:47.645Z,100638.16
2022-11-07T06:05:54.065Z,100650.13
2022-11-07T06:11:00.610Z,100645.16
2022-11-07T06:16:03.466Z,100659.28
2022-11-07T06:21:07.761Z,100669.84
2022-11-07T06:26:12.194Z,100682.06
2022-11-07T06:31:14.097Z,100670.19
2022-11-07T06:36:21.817Z,100668.50
2022-11-07T06:41:23.836Z,100668.50
2022-11-07T06:46:27.603Z,100678.22
2022-11-07T06:51:32.575Z,100686.75
2022-11-07T06:56:36.700Z,100690.09
2022-11-07T07:01:41.043Z,100679.84
2022-11-07T07:06:45.645Z,100694.25
2022-11-07T07:11:48.268Z,100699.59
2022-11-07T07:16:54.066Z,100714.16
2022-11-07T07:21:55.816Z,100717.84
2022-11-07T07:26:57.440Z,100712.84
2022-11-07T07:32:02.659Z,100710.63
2022-11-07T07:37:09.171Z,100714.91
2022-11-07T07:42:13.106Z,100719.88
2022-11-07T07:47:19.232Z,100717.13
2022-11-07T07:52:23.381Z,100715.47
2022-11-07T07:57:29.792Z,100727.28
2022-11-07T08:02:35.010Z,100706.78
2022-11-07T08:07:44.887Z,100741.59
2022-11-07T08:12:49.383Z,100742.66
2022-11-07T08:17:53.511Z,100740.91
2022-11-07T08:23:09.781Z,100758.25
2022-11-07T08:28:20.207Z,100746.31
2022-11-07T08:33:27.106Z,100754.16
2022-11-07T08:38:34.552Z,100756.66
2022-11-07T08:43:40.382Z,100766.16
2022-11-07T08:48:46.583Z,100765.16
2022-11-07T08:53:48.274Z,100771.97
2022-11-07T08:58:52.244Z,100788.22
2022-11-07T09:03:58.069Z,100767.19
2022-11-07T09:09:00.965Z,100771.81
2022-11-07T09:14:02.696Z,100773.19
2022-11-07T09:19:04.460Z,100785.63
2022-11-07T09:24:08.473Z,100786.53
2022-11-07T09:29:14.784Z,100781.81
2022-11-07T09:34:16.526Z,100788.19
2022-11-07T09:39:20.442Z,100786.13
2022-11-07T09:44:55.551Z,100799.59
2022-11-07T09:50:00.185Z,100803.00
2022-11-07T09:55:15.820Z,100811.09
2022-11-07T10:00:21.291Z,100830.31
2022-11-07T10:06:02.667Z,100818.97
2022-11-07T10:11:11.803Z,100836.44
2022-11-07T10:16:17.535Z,100835.47
2022-11-07T10:21:38.704Z,100825.44
2022-11-07T10:26:45.692Z,100841.63
2022-11-07T10:32:11.915Z,100838.38
2022-11-07T10:37:13.652Z,100833.09
2022-11-07T10:42:20.839Z,100832.88
2022-11-07T10:47:29.039Z,100839.75
2022-11-07T10:52:30.756Z,100819.19
2022-11-07T10:57:36.047Z,100828.13
2022-11-07T11:02:50.585Z,100838.19
2022-11-07T11:07:55.554Z,100828.41
2022-11-07T11:13:02.189Z,100829.16
2022-11-07T11:18:12.534Z,100835.31
2022-11-07T11:23:25.989Z,100840.53
2022-11-07T11:28:37.107Z,100841.38
2022-11-07T11:33:45.016Z,100843.00
2022-11-07T11:38:54.354Z,100836.22
2022-11-07T11:44:13.712Z,100857.53
2022-11-07T11:49:44.385Z,100839.84
2022-11-07T11:54:46.950Z,100847.16
2022-11-07T12:00:24.971Z,100855.84
2022-11-07T12:05:32.600Z,100841.56
2022-11-07T12:11:00.757Z,100857.06
2022-11-07T12:16:29.743Z,100863.06
2022-11-07T12:21:47.350Z,100882.16
2022-11-07T12:27:16.197Z,100861.34
2022-11-07T12:32:36.707Z,100858.66
2022-11-07T12:38:10.976Z,100856.38
2022-11-07T12:43:15.810Z,100869.25
2022-11-07T12:48:23.200Z,100874.66
2022-11-07T12:53:36.882Z,100862.03
2022-11-07T13:04:18.765Z,100879.50
2022-11-07T13:09:56.088Z,100856.56
2022-11-07T13:14:59.052Z,100854.59
2022-11-07T13:20:03.749Z,100851.09
2022-11-07T13:25:16.024Z,100864.34
2022-11-07T13:30:21.070Z,100871.81
2022-11-07T13:35:26.495Z,100856.13
2022-11-07T13:40:43.294Z,100862.78
2022-11-07T13:45:55.545Z,100865.88
2022-11-07T13:51:06.049Z,100861.75
2022-11-07T13:56:15.235Z,100865.06
2022-11-07T14:01:19.413Z,100857.00
2022-11-07T14:06:21.492Z,100865.69
2022-11-07T14:11:27.564Z,100863.41
2022-11-07T14:16:35.777Z,100873.13
2022-11-07T14:21:37.594Z,100872.94
2022-11-07T14:26:43.793Z,100880.81
2022-11-07T14:31:45.722Z,100887.41
2022-11-07T14:37:13.466Z,100897.50
2022-11-07T14:42:23.454Z,100897.50
2022-11-07T14:47:32.524Z,100901.63
2022-11-07T14:52:44.965Z,100889.84
2022-11-07T14:57:52.068Z,100892.91
2022-11-07T15:02:58.278Z,100886.69
2022-11-07T15:08:00.054Z,100888.91
2022-11-07T15:13:04.407Z,100893.88
2022-11-07T15:18:25.774Z,100900.88
2022-11-07T15:23:35.566Z,100896.69
2022-11-07T15:28:51.154Z,100908.84
2022-11-07T15:33:59.859Z,100897.88
2022-11-07T15:39:04.865Z,100906.31
2022-11-07T15:44:11.397Z,100902.81
2022-11-07T15:49:18.408Z,100913.56
2022-11-07T15:54:20.283Z,100911.94
2022-11-07T15:59:22.520Z,100923.50
2022-11-07T16:04:27.608Z,100917.31
2022-11-07T16:09:32.444Z,100919.13
2022-11-07T16:14:46.269Z,100913.53
2022-11-07T16:20:00.275Z,100923.78
2022-11-07T16:25:05.912Z,100933.09
2022-11-07T16:30:18.029Z,100944.03
2022-11-07T16:35:25.437Z,100949.75
2022-11-07T16:40:33.666Z,100943.47
2022-11-07T16:45:47.200Z,100954.72
2022-11-07T16:50:49.878Z,100936.94
2022-11-07T16:55:54.260Z,100949.38
2022-11-07T17:00:58.012Z,100938.41
2022-11-07T17:06:03.900Z,100955.97
2022-11-07T17:11:08.834Z,100955.16
2022-11-07T17:16:14.387Z,100940.50
2022-11-07T17:21:30.375Z,100946.34
2022-11-07T17:26:41.379Z,100953.38
2022-11-07T17:31:43.357Z,100951.06
2022-11-07T17:36:49.576Z,100952.94
2022-11-07T17:41:52.457Z,100949.16
2022-11-07T17:46:55.451Z,100962.53
2022-11-07T17:51:59.458Z,100952.38
2022-11-07T17:57:08.914Z,100956.66
2022-11-07T18:02:21.961Z,100951.25
2022-11-07T18:07:26.324Z,100943.75
2022-11-07T18:12:28.249Z,100952.38
2022-11-07T18:17:30.006Z,100946.75
2022-11-07T18:22:31.754Z,100947.34
2022-11-07T18:27:36.864Z,100946.94
2022-11-07T18:32:38.699Z,100955.06
2022-11-07T18:37:40.522Z,100955.22
2022-11-07T18:42:46.058Z,100954.75
2022-11-07T18:47:47.799Z,100962.16
2022-11-07T18:52:49.629Z,100961.91
2022-11-07T18:57:51.442Z,100959.59
2022-11-07T19:02:56.435Z,100960.81
2022-11-07T19:08:01.367Z,100960.97
2022-11-07T19:13:08.277Z,100962.84
2022-11-07T19:19:03.659Z,100957.47
2022-11-07T19:23:50.897Z,100961.84
2022-11-07T19:29:20.609Z,100959.97
2022-11-07T19:34:24.023Z,100965.53
2022-11-07T19:39:29.655Z,100959.34
2022-11-07T19:44:37.898Z,100970.06
2022-11-07T19:49:45.420Z,100962.66
2022-11-07T19:54:50.349Z,100957.94
2022-11-07T19:59:56.613Z,100950.72
2022-11-07T20:05:00.792Z,100963.94
2022-11-07T20:10:02.623Z,100954.03
2022-11-07T20:15:05.035Z,100950.53
2022-11-07T20:20:13.929Z,100950.06
2022-11-07T20:25:19.123Z,100952.94
2022-11-07T20:30:23.209Z,100965.53
2022-11-07T20:35:31.048Z,100956.19
2022-11-07T20:40:36.827Z,100952.00
2022-11-07T20:45:46.021Z,100964.59
2022-11-07T20:50:50.274Z,100964.78
2022-11-07T20:55:54.427Z,100968.28
2022-11-07T21:00:56.173Z,100963.22
2022-11-07T21:05:57.977Z,100967.56
2022-11-07T21:11:04.609Z,100963.41
2022-11-07T21:16:11.257Z,100970.63
2022-11-07T21:21:20.452Z,100967.75
2022-11-07T21:26:31.614Z,100964.88
2022-11-07T21:31:36.629Z,100965.34
2022-11-07T21:36:38.681Z,100980.03
2022-11-07T21:41:42.723Z,100973.91
2022-11-07T21:46:47.525Z,100967.59
2022-11-07T21:57:20.290Z,100972.78
2022-11-07T22:02:22.011Z,100969.69
2022-11-07T22:07:23.782Z,100980.25
2022-11-07T22:12:30.158Z,100978.84
2022-11-07T22:17:36.729Z,100983.81
2022-11-07T22:22:41.042Z,100981.59
2022-11-07T22:27:45.008Z,100977.69
2022-11-07T22:32:46.830Z,100984.34
2022-11-07T22:37:52.149Z,100983.13
2022-11-07T22:42:53.909Z,100981.88
2022-11-07T22:53:23.795Z,100971.63
2022-11-07T22:58:27.694Z,100980.50
2022-11-07T23:03:29.430Z,100982.59
2022-11-07T23:08:36.854Z,100972.25
2022-11-07T23:13:41.485Z,100965.97
2022-11-07T23:18:46.481Z,100975.00
2022-11-07T23:23:52.427Z,100973.91
2022-11-07T23:28:56.632Z,100977.44
2022-11-07T23:33:58.372Z,100972.91
2022-11-07T23:39:09.779Z,100971.84
2022-11-07T23:44:11.665Z,100964.22
2022-11-07T23:49:36.596Z,100968.47
2022-11-07T23:54:59.360Z,100962.69
